Time;durP1;ratioP1;P1;durP2;ratioP2;P2;SDS_P1;SDS_P2;PMS_P1;PMS_P2;Temp;Humidity;BMP_temperature;BMP_pressure;BME280_temperature;BME280_humidity;BME280_pressure;Samples;Min_cycle;Max_cycle;Signal;HPM_P1;HPM_P2
2021/06/16 00:01:36;;;;;;;4.67;1.80;;;;;;;;;;5071591;28;20483;-64
2021/06/16 00:04:03;;;;;;;2.13;1.17;;;;;;;;;;5070668;28;20474;-64
2021/06/16 00:06:30;;;;;;;5.77;1.47;;;;;;;;;;5070415;28;20482;-64
2021/06/16 00:08:57;;;;;;;3.37;1.87;;;;;;;;;;5072113;28;20461;-64
2021/06/16 00:11:25;;;;;;;2.07;1.37;;;;;;;;;;5071037;28;20490;-64
2021/06/16 00:13:52;;;;;;;3.60;1.80;;;;;;;;;;5072585;28;20449;-65
2021/06/16 00:16:19;;;;;;;3.20;1.73;;;;;;;;;;5069262;28;20838;-65
2021/06/16 00:18:48;;;;;;;5.33;2.03;;;;;;;;;;5072600;28;20442;-65
2021/06/16 00:21:15;;;;;;;5.30;2.20;;;;;;;;;;5071078;28;20813;-65
2021/06/16 00:23:42;;;;;;;6.03;2.10;;;;;;;;;;5071589;28;20479;-65
2021/06/16 00:26:10;;;;;;;3.87;1.97;;;;;;;;;;5069841;28;20970;-65
2021/06/16 00:28:37;;;;;;;10.43;2.57;;;;;;;;;;5071989;28;21016;-65
2021/06/16 00:31:04;;;;;;;4.40;1.90;;;;;;;;;;5070195;28;20489;-64
2021/06/16 00:33:31;;;;;;;3.40;1.30;;;;;;;;;;5070592;28;20459;-64
2021/06/16 00:36:00;;;;;;;3.83;2.07;;;;;;;;;;5070326;28;20466;-65
2021/06/16 00:38:28;;;;;;;3.00;1.80;;;;;;;;;;5072199;28;20469;-64
2021/06/16 00:40:55;;;;;;;3.80;1.67;;;;;;;;;;5070972;28;20486;-68
2021/06/16 00:43:22;;;;;;;4.33;2.20;;;;;;;;;;5072157;28;20537;-65
2021/06/16 00:45:49;;;;;;;5.73;2.07;;;;;;;;;;5069321;28;20988;-65
2021/06/16 00:48:17;;;;;;;4.77;1.70;;;;;;;;;;5072437;28;20482;-65
2021/06/16 00:50:44;;;;;;;4.23;1.60;;;;;;;;;;5071015;28;20837;-64
2021/06/16 00:53:12;;;;;;;3.83;1.83;;;;;;;;;;5071907;28;20831;-65
2021/06/16 00:55:40;;;;;;;3.77;1.80;;;;;;;;;;5068350;28;20848;-68
2021/06/16 00:58:07;;;;;;;3.33;1.80;;;;;;;;;;5071178;28;20838;-65
2021/06/16 01:00:39;;;;;;;3.70;1.90;;;;;;;;;;5071135;28;20463;-64
2021/06/16 01:03:09;;;;;;;3.20;1.80;;;;;;;;;;5070716;28;20482;-65
2021/06/16 01:05:38;;;;;;;2.50;1.60;;;;;;;;;;5069236;28;20477;-64
2021/06/16 01:08:06;;;;;;;2.30;1.50;;;;;;;;;;5071446;28;20535;-65
2021/06/16 01:10:37;;;;;;;3.83;1.40;;;;;;;;;;5068631;28;20470;-64
2021/06/16 01:13:05;;;;;;;2.10;1.40;;;;;;;;;;5071931;28;20470;-64
2021/06/16 01:15:37;;;;;;;4.17;1.73;;;;;;;;;;5062488;28;20463;-63
2021/06/16 01:18:06;;;;;;;3.50;1.77;;;;;;;;;;5068105;28;20822;-64
2021/06/16 01:20:34;;;;;;;3.10;1.30;;;;;;;;;;5071966;28;20492;-65
2021/06/16 01:23:04;;;;;;;2.10;1.60;;;;;;;;;;5069076;28;20510;-64
2021/06/16 01:25:35;;;;;;;2.63;1.63;;;;;;;;;;5070393;28;21206;-65
2021/06/16 01:28:04;;;;;;;2.40;1.60;;;;;;;;;;5071516;28;20467;-65
2021/06/16 01:30:32;;;;;;;4.17;1.70;;;;;;;;;;5076063;28;20455;-65
2021/06/16 01:33:01;;;;;;;6.10;2.13;;;;;;;;;;5074597;28;20479;-65
2021/06/16 01:35:29;;;;;;;4.40;1.63;;;;;;;;;;5071827;28;20992;-66
2021/06/16 01:37:56;;;;;;;3.50;1.70;;;;;;;;;;5075721;28;20439;-63
2021/06/16 01:40:24;;;;;;;3.30;1.73;;;;;;;;;;5076172;28;20811;-65
2021/06/16 01:42:52;;;;;;;3.77;1.77;;;;;;;;;;5076626;28;20501;-65
2021/06/16 01:45:21;;;;;;;3.43;1.67;;;;;;;;;;5071342;28;20467;-65
2021/06/16 01:47:49;;;;;;;2.77;1.97;;;;;;;;;;5070660;28;20956;-65
2021/06/16 01:50:18;;;;;;;3.20;1.70;;;;;;;;;;5070624;28;20834;-65
2021/06/16 01:52:48;;;;;;;3.83;1.43;;;;;;;;;;5071296;28;20487;-65
2021/06/16 01:55:15;;;;;;;3.07;1.63;;;;;;;;;;5069234;28;20470;-64
2021/06/16 01:57:43;;;;;;;3.63;2.33;;;;;;;;;;5071706;28;20654;-65
2021/06/16 02:00:11;;;;;;;2.77;1.70;;;;;;;;;;5069355;28;20485;-65
2021/06/16 02:02:39;;;;;;;2.60;1.63;;;;;;;;;;5069505;28;20487;-65
2021/06/16 02:05:07;;;;;;;2.80;1.50;;;;;;;;;;5070909;28;20723;-65
2021/06/16 02:07:39;;;;;;;3.70;1.63;;;;;;;;;;5073907;28;20475;-66
2021/06/16 02:10:07;;;;;;;3.70;1.90;;;;;;;;;;5075173;28;20847;-65
2021/06/16 02:12:35;;;;;;;1.93;1.63;;;;;;;;;;5077005;28;20493;-65
2021/06/16 02:15:04;;;;;;;2.90;1.73;;;;;;;;;;5077502;28;20473;-65
2021/06/16 02:17:32;;;;;;;4.67;1.77;;;;;;;;;;5077510;28;20439;-65
2021/06/16 02:20:00;;;;;;;1.93;1.60;;;;;;;;;;5075458;28;20439;-66
2021/06/16 02:22:28;;;;;;;2.73;1.90;;;;;;;;;;5076688;28;20996;-65
2021/06/16 02:24:55;;;;;;;2.63;1.70;;;;;;;;;;5058041;28;20483;-64
2021/06/16 02:27:23;;;;;;;5.40;2.20;;;;;;;;;;5069365;28;20483;-65
2021/06/16 02:29:50;;;;;;;8.60;1.70;;;;;;;;;;5069962;28;20569;-65
2021/06/16 02:32:17;;;;;;;3.40;1.60;;;;;;;;;;5070867;28;20500;-65
2021/06/16 02:34:44;;;;;;;3.17;1.50;;;;;;;;;;5070040;28;20446;-64
2021/06/16 02:37:14;;;;;;;2.03;1.50;;;;;;;;;;5073810;28;20945;-65
2021/06/16 02:39:41;;;;;;;2.60;1.73;;;;;;;;;;5072982;28;20442;-65
2021/06/16 02:42:10;;;;;;;4.17;1.70;;;;;;;;;;5072322;28;20871;-64
2021/06/16 02:44:37;;;;;;;4.70;1.70;;;;;;;;;;5073206;28;20451;-63
2021/06/16 02:47:06;;;;;;;3.80;1.80;;;;;;;;;;5071593;28;20458;-65
2021/06/16 02:49:35;;;;;;;3.27;1.93;;;;;;;;;;5073994;28;20453;-65
2021/06/16 02:52:02;;;;;;;4.90;1.60;;;;;;;;;;5072536;28;20493;-65
2021/06/16 02:54:32;;;;;;;3.67;1.60;;;;;;;;;;5071257;28;20467;-65
2021/06/16 02:57:00;;;;;;;2.43;1.67;;;;;;;;;;5069417;28;20470;-62
2021/06/16 02:59:29;;;;;;;3.50;1.70;;;;;;;;;;5073556;28;20521;-63
2021/06/16 03:01:56;;;;;;;2.73;1.43;;;;;;;;;;5072640;28;20482;-63
2021/06/16 03:04:24;;;;;;;2.23;1.80;;;;;;;;;;5073057;28;20481;-63
2021/06/16 03:06:53;;;;;;;3.13;1.60;;;;;;;;;;5072266;28;20451;-63
2021/06/16 03:09:20;;;;;;;2.37;1.67;;;;;;;;;;5072727;28;20486;-63
2021/06/16 03:11:49;;;;;;;3.20;1.63;;;;;;;;;;5064824;28;21006;-63
2021/06/16 03:14:16;;;;;;;4.57;1.93;;;;;;;;;;5073591;28;20792;-63
2021/06/16 03:16:43;;;;;;;3.50;2.00;;;;;;;;;;5068019;28;20469;-63
2021/06/16 03:19:11;;;;;;;3.43;2.20;;;;;;;;;;5072244;28;20462;-63
2021/06/16 03:21:39;;;;;;;3.57;2.10;;;;;;;;;;5072751;28;20473;-63
2021/06/16 03:24:06;;;;;;;4.00;2.00;;;;;;;;;;5072826;28;20474;-63
2021/06/16 03:26:33;;;;;;;3.50;1.80;;;;;;;;;;5072068;28;20447;-63
2021/06/16 03:29:02;;;;;;;3.83;1.93;;;;;;;;;;5070637;28;20475;-63
2021/06/16 03:31:30;;;;;;;3.97;1.83;;;;;;;;;;5072745;28;21005;-62
2021/06/16 03:33:57;;;;;;;3.40;1.93;;;;;;;;;;5072015;28;20471;-63
2021/06/16 03:36:24;;;;;;;2.70;1.43;;;;;;;;;;5072416;28;20442;-63
2021/06/16 03:38:52;;;;;;;3.70;2.13;;;;;;;;;;5071277;28;20459;-63
2021/06/16 03:41:21;;;;;;;2.57;2.10;;;;;;;;;;5069801;28;20490;-63
2021/06/16 03:43:49;;;;;;;5.00;1.97;;;;;;;;;;5060889;28;20474;-63
2021/06/16 03:46:18;;;;;;;3.83;1.60;;;;;;;;;;5071188;28;20451;-63
2021/06/16 03:48:46;;;;;;;4.33;2.10;;;;;;;;;;5070504;28;21021;-63
2021/06/16 03:51:13;;;;;;;5.40;2.30;;;;;;;;;;5071890;28;20954;-62
2021/06/16 03:53:40;;;;;;;3.77;1.90;;;;;;;;;;5071375;28;20478;-63
2021/06/16 03:56:08;;;;;;;3.90;1.80;;;;;;;;;;5072134;28;20451;-63
2021/06/16 03:58:36;;;;;;;3.10;1.70;;;;;;;;;;5068234;28;21254;-64
2021/06/16 04:01:03;;;;;;;8.63;2.80;;;;;;;;;;5052709;28;20923;-64
2021/06/16 04:03:32;;;;;;;4.00;2.00;;;;;;;;;;5071520;28;20474;-64
2021/06/16 04:05:59;;;;;;;5.03;2.13;;;;;;;;;;5070498;28;20459;-64
2021/06/16 04:08:27;;;;;;;3.77;2.20;;;;;;;;;;5070713;28;20483;-63
2021/06/16 04:10:55;;;;;;;3.83;1.97;;;;;;;;;;5071636;28;20476;-63
2021/06/16 04:13:22;;;;;;;3.33;2.33;;;;;;;;;;5071894;28;20467;-64
2021/06/16 04:15:50;;;;;;;3.50;2.00;;;;;;;;;;5070898;28;20471;-64
2021/06/16 04:18:18;;;;;;;3.17;2.00;;;;;;;;;;5070635;28;20550;-64
2021/06/16 04:20:46;;;;;;;4.70;2.30;;;;;;;;;;5071338;28;20473;-63
2021/06/16 04:23:15;;;;;;;2.97;2.10;;;;;;;;;;5070246;28;20862;-64
2021/06/16 04:25:42;;;;;;;4.97;2.03;;;;;;;;;;5071320;28;20959;-64
2021/06/16 04:28:09;;;;;;;4.00;1.93;;;;;;;;;;5071263;28;20486;-63
2021/06/16 04:30:36;;;;;;;5.40;1.93;;;;;;;;;;5071223;28;20840;-63
2021/06/16 04:33:03;;;;;;;2.10;1.80;;;;;;;;;;5067950;28;20489;-64
2021/06/16 04:35:30;;;;;;;3.43;2.37;;;;;;;;;;5071458;28;20951;-63
2021/06/16 04:37:59;;;;;;;4.17;2.10;;;;;;;;;;5070193;28;20956;-64
2021/06/16 04:40:26;;;;;;;6.20;2.00;;;;;;;;;;5071367;28;20463;-64
2021/06/16 04:42:53;;;;;;;4.50;2.10;;;;;;;;;;5069891;28;20490;-63
2021/06/16 04:45:20;;;;;;;5.97;2.40;;;;;;;;;;5070781;28;20469;-63
2021/06/16 04:47:48;;;;;;;4.43;2.57;;;;;;;;;;5068012;28;20469;-63
2021/06/16 04:50:15;;;;;;;5.30;2.57;;;;;;;;;;5071653;28;20451;-62
2021/06/16 04:52:43;;;;;;;5.70;2.37;;;;;;;;;;5069135;28;20509;-63
2021/06/16 04:55:13;;;;;;;5.03;2.83;;;;;;;;;;5070069;28;20568;-63
2021/06/16 04:57:40;;;;;;;3.17;2.20;;;;;;;;;;5053990;28;20997;-63
2021/06/16 05:00:08;;;;;;;5.47;2.17;;;;;;;;;;5069044;28;20985;-63
2021/06/16 05:02:35;;;;;;;6.53;2.20;;;;;;;;;;5070028;28;20867;-63
2021/06/16 05:05:02;;;;;;;5.77;2.00;;;;;;;;;;5071614;28;20454;-63
2021/06/16 05:07:29;;;;;;;3.93;2.40;;;;;;;;;;5069560;28;21000;-63
2021/06/16 05:09:56;;;;;;;3.80;2.03;;;;;;;;;;5070814;28;20493;-62
2021/06/16 05:12:25;;;;;;;4.10;2.30;;;;;;;;;;5070586;28;20494;-66
2021/06/16 05:14:52;;;;;;;6.30;2.60;;;;;;;;;;5069136;28;20467;-63
2021/06/16 05:17:20;;;;;;;6.07;2.27;;;;;;;;;;5068599;28;20470;-63
2021/06/16 05:19:47;;;;;;;8.83;2.20;;;;;;;;;;5067177;28;20989;-63
2021/06/16 05:22:14;;;;;;;4.80;2.20;;;;;;;;;;5067937;28;20493;-63
2021/06/16 05:24:43;;;;;;;5.00;2.50;;;;;;;;;;5071018;28;20952;-64
2021/06/16 05:27:10;;;;;;;7.93;2.00;;;;;;;;;;5069631;28;20493;-63
2021/06/16 05:29:38;;;;;;;3.33;2.00;;;;;;;;;;5069395;28;20993;-62
2021/06/16 05:32:05;;;;;;;5.30;2.27;;;;;;;;;;5068795;28;20489;-63
2021/06/16 05:34:32;;;;;;;5.10;1.70;;;;;;;;;;5071456;28;20443;-63
2021/06/16 05:37:00;;;;;;;6.03;2.10;;;;;;;;;;5070013;28;20470;-62
2021/06/16 05:39:27;;;;;;;4.13;2.40;;;;;;;;;;5069049;28;20958;-63
2021/06/16 05:41:55;;;;;;;3.17;2.10;;;;;;;;;;5069732;28;20499;-63
2021/06/16 05:44:22;;;;;;;3.77;1.83;;;;;;;;;;5068783;28;20467;-63
2021/06/16 05:46:50;;;;;;;4.33;2.07;;;;;;;;;;5070716;28;20450;-63
2021/06/16 05:49:17;;;;;;;2.27;1.67;;;;;;;;;;5069606;28;20862;-63
2021/06/16 05:51:44;;;;;;;3.47;2.10;;;;;;;;;;5070034;28;20487;-63
2021/06/16 05:54:11;;;;;;;9.60;2.07;;;;;;;;;;5069887;28;20533;-63
2021/06/16 05:56:39;;;;;;;3.47;2.33;;;;;;;;;;5067849;28;20470;-63
2021/06/16 05:59:06;;;;;;;5.37;2.20;;;;;;;;;;5066578;28;20461;-63
2021/06/16 06:01:33;;;;;;;4.53;2.00;;;;;;;;;;5068721;28;20483;-63
2021/06/16 06:04:02;;;;;;;3.67;2.03;;;;;;;;;;5067665;28;20961;-62
2021/06/16 06:06:29;;;;;;;5.03;2.10;;;;;;;;;;5069358;28;20467;-62
2021/06/16 06:08:56;;;;;;;2.90;1.67;;;;;;;;;;5071194;28;21007;-63
2021/06/16 06:11:24;;;;;;;3.07;1.60;;;;;;;;;;5073739;28;20489;-63
2021/06/16 06:13:51;;;;;;;2.60;1.20;;;;;;;;;;5074386;28;20450;-63
2021/06/16 06:16:18;;;;;;;3.07;1.63;;;;;;;;;;5072790;28;20473;-63
2021/06/16 06:18:45;;;;;;;4.00;1.87;;;;;;;;;;5069377;28;20470;-63
2021/06/16 06:21:13;;;;;;;4.53;1.77;;;;;;;;;;5071363;28;20451;-63
2021/06/16 06:23:40;;;;;;;3.47;1.50;;;;;;;;;;5074602;28;20533;-63
2021/06/16 06:26:08;;;;;;;2.37;1.43;;;;;;;;;;5060375;28;20458;-62
2021/06/16 06:28:36;;;;;;;2.07;1.57;;;;;;;;;;5059036;28;20486;-62
2021/06/16 06:31:03;;;;;;;2.40;1.30;;;;;;;;;;5074617;28;20454;-62
2021/06/16 06:33:30;;;;;;;3.13;1.90;;;;;;;;;;5073491;28;20458;-64
2021/06/16 06:35:57;;;;;;;3.03;1.50;;;;;;;;;;5073209;28;20927;-64
2021/06/16 06:38:25;;;;;;;3.60;2.40;;;;;;;;;;5074446;28;20454;-63
2021/06/16 06:40:53;;;;;;;5.67;2.23;;;;;;;;;;5074312;28;20928;-64
2021/06/16 06:43:20;;;;;;;4.50;2.20;;;;;;;;;;5074168;28;20489;-64
2021/06/16 06:45:47;;;;;;;2.60;1.80;;;;;;;;;;5071269;28;20447;-64
2021/06/16 06:48:14;;;;;;;8.83;3.33;;;;;;;;;;5074415;28;20447;-63
2021/06/16 06:50:41;;;;;;;39.47;10.17;;;;;;;;;;5071739;28;20442;-64
2021/06/16 06:53:08;;;;;;;6.70;3.23;;;;;;;;;;5053787;28;20467;-64
2021/06/16 06:55:37;;;;;;;3.10;2.13;;;;;;;;;;5068037;28;20451;-64
2021/06/16 06:58:04;;;;;;;5.60;2.53;;;;;;;;;;5094415;28;20445;-64
2021/06/16 07:00:31;;;;;;;7.00;2.43;;;;;;;;;;5085983;28;20435;-63
2021/06/16 07:02:58;;;;;;;5.00;2.30;;;;;;;;;;5073816;28;20467;-62
2021/06/16 07:05:25;;;;;;;18.70;4.50;;;;;;;;;;5073298;28;20445;-71
2021/06/16 07:07:53;;;;;;;7.77;2.90;;;;;;;;;;5073171;28;20953;-70
2021/06/16 07:10:20;;;;;;;4.40;2.67;;;;;;;;;;5073168;28;20483;-68
2021/06/16 07:12:48;;;;;;;4.67;2.33;;;;;;;;;;5082357;28;21006;-73
2021/06/16 07:15:16;;;;;;;4.63;2.60;;;;;;;;;;5093879;28;20442;-67
2021/06/16 07:17:44;;;;;;;3.10;2.13;;;;;;;;;;5093565;28;20446;-67
2021/06/16 07:20:12;;;;;;;3.37;2.00;;;;;;;;;;5085829;28;20454;-67
2021/06/16 07:22:39;;;;;;;5.10;2.50;;;;;;;;;;5073447;28;20475;-67
2021/06/16 07:25:07;;;;;;;4.30;2.20;;;;;;;;;;5073330;28;20941;-67
2021/06/16 07:27:34;;;;;;;5.03;2.67;;;;;;;;;;5072473;28;20935;-67
2021/06/16 07:30:04;;;;;;;5.50;2.33;;;;;;;;;;5073438;28;20483;-63
2021/06/16 07:32:31;;;;;;;6.23;2.20;;;;;;;;;;5073116;28;20466;-64
2021/06/16 07:34:59;;;;;;;3.93;1.90;;;;;;;;;;5072657;28;20447;-63
2021/06/16 07:37:26;;;;;;;3.13;1.93;;;;;;;;;;5071968;28;20510;-64
2021/06/16 07:39:54;;;;;;;6.63;2.20;;;;;;;;;;5064010;28;20453;-64
2021/06/16 07:42:21;;;;;;;4.57;2.20;;;;;;;;;;5072876;28;20854;-64
2021/06/16 07:44:48;;;;;;;3.17;2.00;;;;;;;;;;5073261;28;20443;-64
2021/06/16 07:47:17;;;;;;;3.83;2.00;;;;;;;;;;5071989;28;20462;-64
2021/06/16 07:49:44;;;;;;;2.37;1.97;;;;;;;;;;5072776;28;20478;-64
2021/06/16 07:52:11;;;;;;;3.40;2.17;;;;;;;;;;5072627;28;20473;-65
2021/06/16 07:54:38;;;;;;;3.00;1.60;;;;;;;;;;5071185;28;20451;-63
2021/06/16 07:57:05;;;;;;;2.90;1.53;;;;;;;;;;5072133;28;20446;-66
2021/06/16 07:59:33;;;;;;;3.30;1.90;;;;;;;;;;5072769;28;20516;-63
2021/06/16 08:02:00;;;;;;;2.30;1.70;;;;;;;;;;5072318;28;20463;-64
2021/06/16 08:04:28;;;;;;;3.97;2.33;;;;;;;;;;5072616;28;20507;-63
2021/06/16 08:06:57;;;;;;;4.80;2.10;;;;;;;;;;5072123;28;20472;-63
2021/06/16 08:09:24;;;;;;;2.97;1.73;;;;;;;;;;5072508;28;20475;-65
2021/06/16 08:11:51;;;;;;;2.20;1.87;;;;;;;;;;5072677;28;20475;-63
2021/06/16 08:14:18;;;;;;;3.07;2.10;;;;;;;;;;5071491;28;20451;-64
2021/06/16 08:16:45;;;;;;;3.63;1.77;;;;;;;;;;5051779;28;20447;-63
2021/06/16 08:19:12;;;;;;;5.43;2.30;;;;;;;;;;5052438;28;20447;-62
2021/06/16 08:21:42;;;;;;;2.37;1.90;;;;;;;;;;5052530;28;20475;-63
2021/06/16 08:24:09;;;;;;;4.37;2.00;;;;;;;;;;5052189;28;20447;-62
2021/06/16 08:26:36;;;;;;;4.40;1.80;;;;;;;;;;5053422;28;20448;-65
2021/06/16 08:29:03;;;;;;;3.80;1.87;;;;;;;;;;5071669;28;20455;-65
2021/06/16 08:31:30;;;;;;;2.37;1.70;;;;;;;;;;5071195;28;20467;-66
2021/06/16 08:33:57;;;;;;;2.90;1.73;;;;;;;;;;5071080;28;20537;-63
2021/06/16 08:36:25;;;;;;;2.30;1.40;;;;;;;;;;5071471;28;20443;-66
2021/06/16 08:38:53;;;;;;;4.37;2.00;;;;;;;;;;5071387;28;20455;-63
2021/06/16 08:41:21;;;;;;;4.33;1.70;;;;;;;;;;5071852;28;20857;-64
2021/06/16 08:43:49;;;;;;;3.50;1.40;;;;;;;;;;5053533;28;20447;-67
2021/06/16 08:46:17;;;;;;;5.33;1.93;;;;;;;;;;5051333;28;20539;-63
2021/06/16 08:48:45;;;;;;;4.00;1.40;;;;;;;;;;5069339;28;20492;-63
2021/06/16 08:51:15;;;;;;;5.10;1.90;;;;;;;;;;5071677;28;20491;-63
2021/06/16 08:53:43;;;;;;;3.17;1.60;;;;;;;;;;5071329;28;20508;-63
2021/06/16 08:56:11;;;;;;;3.40;1.83;;;;;;;;;;5070860;28;20462;-63
2021/06/16 08:58:39;;;;;;;5.50;2.10;;;;;;;;;;5070762;28;20447;-63
2021/06/16 09:01:07;;;;;;;6.07;1.60;;;;;;;;;;5071253;28;20965;-61
2021/06/16 09:03:34;;;;;;;2.67;1.40;;;;;;;;;;5071423;28;20447;-61
2021/06/16 09:06:05;;;;;;;3.33;1.40;;;;;;;;;;5070978;28;20454;-62
2021/06/16 09:08:33;;;;;;;4.63;1.60;;;;;;;;;;5071559;28;20433;-62
2021/06/16 09:11:00;;;;;;;2.90;1.60;;;;;;;;;;5070623;28;20482;-63
2021/06/16 09:13:30;;;;;;;3.73;1.67;;;;;;;;;;5057562;28;20767;-65
2021/06/16 09:15:58;;;;;;;2.87;1.80;;;;;;;;;;5069861;28;20462;-64
2021/06/16 09:18:25;;;;;;;4.97;2.03;;;;;;;;;;5071462;28;20450;-62
2021/06/16 09:20:56;;;;;;;3.27;1.47;;;;;;;;;;5070365;28;20477;-64
2021/06/16 09:23:24;;;;;;;3.73;1.47;;;;;;;;;;5075721;28;20481;-62
2021/06/16 09:26:10;;;;;;;2.47;1.60;;;;;;;;;;5091142;28;20496;-63
2021/06/16 09:28:40;;;;;;;2.80;1.40;;;;;;;;;;5086353;28;20672;-61
2021/06/16 09:31:07;;;;;;;4.97;1.97;;;;;;;;;;5071510;28;20856;-62
2021/06/16 09:33:35;;;;;;;3.83;2.00;;;;;;;;;;5070857;28;20826;-62
2021/06/16 09:36:03;;;;;;;4.20;2.03;;;;;;;;;;5070252;28;20455;-62
2021/06/16 09:38:31;;;;;;;3.33;1.53;;;;;;;;;;5070052;28;20451;-64
2021/06/16 09:40:59;;;;;;;3.97;1.70;;;;;;;;;;5071099;28;20925;-65
2021/06/16 09:43:27;;;;;;;2.63;1.37;;;;;;;;;;5071425;28;20458;-64
2021/06/16 09:45:57;;;;;;;3.23;1.40;;;;;;;;;;5074885;28;20451;-65
2021/06/16 09:48:34;;;;;;;3.83;1.70;;;;;;;;;;5074947;28;20478;-65
2021/06/16 09:51:25;;;;;;;4.67;1.80;;;;;;;;;;5075075;28;20823;-66
2021/06/16 09:54:00;;;;;;;6.30;1.87;;;;;;;;;;5043289;28;20454;-64
2021/06/16 09:56:27;;;;;;;3.10;1.77;;;;;;;;;;5074194;28;20439;-61
2021/06/16 09:58:55;;;;;;;2.93;1.73;;;;;;;;;;5073886;28;20545;-61
2021/06/16 10:01:43;;;;;;;3.53;2.00;;;;;;;;;;5074677;28;20466;-64
2021/06/16 10:04:10;;;;;;;3.03;1.50;;;;;;;;;;5074569;28;20455;-64
2021/06/16 10:06:37;;;;;;;2.63;1.83;;;;;;;;;;5073779;28;20451;-66
2021/06/16 10:09:08;;;;;;;2.30;1.43;;;;;;;;;;5074611;28;20828;-65
2021/06/16 10:11:35;;;;;;;3.30;1.80;;;;;;;;;;5072814;28;20509;-66
2021/06/16 10:14:02;;;;;;;4.80;2.03;;;;;;;;;;5072901;28;20446;-67
2021/06/16 10:16:31;;;;;;;4.43;2.30;;;;;;;;;;5062717;28;20451;-65
2021/06/16 10:18:58;;;;;;;3.20;1.90;;;;;;;;;;5074607;28;20814;-66
2021/06/16 10:21:25;;;;;;;3.13;1.77;;;;;;;;;;5073805;28;21044;-66
2021/06/16 10:23:52;;;;;;;5.80;1.60;;;;;;;;;;5058731;28;20470;-61
2021/06/16 10:26:23;;;;;;;2.90;1.63;;;;;;;;;;5073245;28;20462;-61
2021/06/16 10:28:53;;;;;;;3.50;1.67;;;;;;;;;;5074863;28;20451;-61
2021/06/16 10:31:21;;;;;;;5.70;1.80;;;;;;;;;;5074194;28;20486;-62
2021/06/16 10:33:55;;;;;;;3.80;1.87;;;;;;;;;;5074389;28;20453;-61
2021/06/16 10:36:23;;;;;;;7.20;1.67;;;;;;;;;;5072374;28;20865;-62
2021/06/16 10:39:06;;;;;;;4.63;2.30;;;;;;;;;;5074519;28;20855;-62
2021/06/16 10:41:54;;;;;;;4.87;2.30;;;;;;;;;;5070621;28;20517;-62
2021/06/16 10:44:21;;;;;;;2.90;1.93;;;;;;;;;;5073544;28;20520;-64
2021/06/16 10:46:51;;;;;;;2.60;1.90;;;;;;;;;;5061540;22;20506;-69
2021/06/16 10:49:50;;;;;;;3.53;2.10;;;;;;;;;;5033980;28;20494;-66
2021/06/16 10:52:18;;;;;;;7.07;3.27;;;;;;;;;;5033897;28;20437;-67
2021/06/16 10:54:54;;;;;;;7.23;3.50;;;;;;;;;;5032535;28;20453;-68
2021/06/16 10:57:22;;;;;;;6.03;2.53;;;;;;;;;;5033064;28;20468;-67
2021/06/16 11:00:04;;;;;;;7.90;2.30;;;;;;;;;;5033308;28;20874;-67
2021/06/16 11:03:05;;;;;;;2.60;2.20;;;;;;;;;;5033166;28;20452;-67
2021/06/16 11:05:38;;;;;;;4.03;2.37;;;;;;;;;;5032303;28;20491;-67
2021/06/16 11:08:07;;;;;;;4.40;2.10;;;;;;;;;;5032835;28;20448;-67
2021/06/16 11:10:54;;;;;;;2.73;2.00;;;;;;;;;;5033112;28;20526;-67
2021/06/16 11:13:37;;;;;;;3.40;2.33;;;;;;;;;;5013852;28;20480;-67
2021/06/16 11:16:19;;;;;;;3.80;2.33;;;;;;;;;;5017876;28;20526;-67
2021/06/16 11:18:46;;;;;;;4.03;2.37;;;;;;;;;;5033569;28;20437;-66
2021/06/16 11:21:18;;;;;;;3.00;2.20;;;;;;;;;;5032037;28;20445;-67
2021/06/16 11:23:50;;;;;;;3.60;2.20;;;;;;;;;;5031767;28;20493;-67
2021/06/16 11:26:32;;;;;;;2.67;2.03;;;;;;;;;;5026756;28;20523;-66
2021/06/16 11:28:59;;;;;;;2.80;2.10;;;;;;;;;;5024686;28;20463;-67
2021/06/16 11:31:26;;;;;;;2.63;1.83;;;;;;;;;;5032206;28;20507;-67
2021/06/16 11:33:55;;;;;;;2.67;1.93;;;;;;;;;;5032403;28;20453;-67
2021/06/16 11:36:38;;;;;;;2.43;2.10;;;;;;;;;;5028799;28;20489;-67
2021/06/16 11:39:09;;;;;;;2.70;1.90;;;;;;;;;;5032708;28;20472;-67
2021/06/16 11:41:36;;;;;;;6.23;2.27;;;;;;;;;;5025506;28;20455;-67
2021/06/16 11:44:10;;;;;;;3.63;2.03;;;;;;;;;;5027377;28;20468;-67
2021/06/16 11:46:38;;;;;;;3.60;2.40;;;;;;;;;;5025264;28;20476;-67
2021/06/16 11:49:07;;;;;;;2.40;2.00;;;;;;;;;;5032841;28;20456;-67
2021/06/16 11:51:37;;;;;;;2.80;2.40;;;;;;;;;;5032304;28;20477;-67
2021/06/16 11:54:19;;;;;;;3.83;2.47;;;;;;;;;;5033205;28;20452;-67
2021/06/16 11:56:47;;;;;;;2.60;2.20;;;;;;;;;;5031620;28;20559;-67
2021/06/16 11:59:14;;;;;;;5.47;2.27;;;;;;;;;;5031689;28;21006;-67
2021/06/16 12:01:41;;;;;;;3.13;2.30;;;;;;;;;;5032864;28;20471;-66
2021/06/16 12:04:13;;;;;;;2.27;2.00;;;;;;;;;;5031463;28;20456;-66
2021/06/16 12:06:41;;;;;;;3.10;2.10;;;;;;;;;;5031139;28;20476;-66
2021/06/16 12:09:08;;;;;;;3.87;2.37;;;;;;;;;;5032685;28;20944;-66
2021/06/16 12:11:36;;;;;;;2.63;2.30;;;;;;;;;;5032041;28;20483;-66
2021/06/16 12:14:05;;;;;;;4.70;2.13;;;;;;;;;;5032361;28;20951;-66
2021/06/16 12:16:33;;;;;;;3.20;1.90;;;;;;;;;;5031027;28;20571;-66
2021/06/16 12:19:11;;;;;;;3.80;2.57;;;;;;;;;;5031838;28;20451;-66
2021/06/16 12:21:38;;;;;;;5.60;2.10;;;;;;;;;;5032548;28;20543;-66
2021/06/16 12:24:20;;;;;;;3.70;2.30;;;;;;;;;;5032244;28;20452;-66
2021/06/16 12:26:58;;;;;;;2.80;2.60;;;;;;;;;;5030760;28;20814;-67
2021/06/16 12:29:25;;;;;;;3.30;2.53;;;;;;;;;;5032278;28;20456;-67
2021/06/16 12:31:54;;;;;;;3.70;2.40;;;;;;;;;;5031953;28;21034;-66
2021/06/16 12:34:30;;;;;;;3.60;2.50;;;;;;;;;;5031348;28;20959;-66
2021/06/16 12:37:05;;;;;;;2.70;2.23;;;;;;;;;;5031136;28;20472;-67
2021/06/16 12:39:34;;;;;;;2.50;2.17;;;;;;;;;;5031715;28;20458;-66
2021/06/16 12:42:06;;;;;;;4.20;3.30;;;;;;;;;;5032304;28;21198;-67
2021/06/16 12:44:38;;;;;;;3.70;2.50;;;;;;;;;;5031091;28;20445;-66
2021/06/16 12:47:06;;;;;;;3.63;2.70;;;;;;;;;;5030939;28;20484;-67
2021/06/16 12:49:35;;;;;;;3.40;2.90;;;;;;;;;;5031772;28;20449;-67
2021/06/16 12:52:04;;;;;;;3.43;2.40;;;;;;;;;;5032069;28;20484;-66
2021/06/16 12:54:32;;;;;;;3.23;2.60;;;;;;;;;;5031422;28;20456;-66
2021/06/16 12:57:06;;;;;;;2.97;2.50;;;;;;;;;;5031302;28;20464;-66
2021/06/16 12:59:37;;;;;;;3.83;2.77;;;;;;;;;;5030859;28;20943;-67
2021/06/16 13:02:05;;;;;;;4.57;2.70;;;;;;;;;;5029702;28;20475;-67
2021/06/16 13:04:51;;;;;;;3.50;2.60;;;;;;;;;;5031474;28;20461;-66
2021/06/16 13:07:19;;;;;;;3.07;2.40;;;;;;;;;;5030641;28;20879;-66
2021/06/16 13:09:59;;;;;;;8.43;2.63;;;;;;;;;;5031957;28;20445;-66
2021/06/16 13:12:28;;;;;;;3.07;2.77;;;;;;;;;;5031084;28;20480;-66
2021/06/16 13:14:59;;;;;;;3.20;2.67;;;;;;;;;;5031169;28;20456;-67
2021/06/16 13:17:27;;;;;;;3.43;2.77;;;;;;;;;;5030321;28;20460;-66
2021/06/16 13:19:58;;;;;;;2.90;2.30;;;;;;;;;;5013162;28;20481;-66
2021/06/16 13:22:32;;;;;;;3.27;2.50;;;;;;;;;;5031484;28;20449;-66
2021/06/16 13:25:01;;;;;;;2.93;2.63;;;;;;;;;;5029375;28;20463;-66
2021/06/16 13:27:29;;;;;;;2.97;2.70;;;;;;;;;;5030493;28;20507;-66
2021/06/16 13:30:00;;;;;;;3.80;2.87;;;;;;;;;;5031284;28;20449;-66
2021/06/16 13:32:37;;;;;;;4.80;2.70;;;;;;;;;;5019300;28;20477;-66
2021/06/16 13:35:05;;;;;;;5.23;3.20;;;;;;;;;;5018384;28;20444;-66
2021/06/16 13:37:32;;;;;;;4.13;2.67;;;;;;;;;;5029835;28;20465;-67
2021/06/16 13:39:59;;;;;;;3.60;2.80;;;;;;;;;;5030808;28;20440;-66
2021/06/16 13:42:27;;;;;;;5.27;3.00;;;;;;;;;;5030582;28;20499;-66
2021/06/16 13:44:55;;;;;;;3.60;3.30;;;;;;;;;;5031585;28;20814;-66
2021/06/16 13:47:22;;;;;;;3.10;2.80;;;;;;;;;;5030064;28;20484;-66
2021/06/16 13:49:49;;;;;;;3.70;3.40;;;;;;;;;;5031477;28;20448;-66
2021/06/16 13:52:20;;;;;;;3.30;3.10;;;;;;;;;;5030415;28;20492;-67
2021/06/16 13:54:48;;;;;;;3.60;3.30;;;;;;;;;;5031047;28;20510;-67
2021/06/16 13:57:15;;;;;;;2.97;2.77;;;;;;;;;;5029566;28;20472;-67
2021/06/16 13:59:42;;;;;;;3.77;3.47;;;;;;;;;;5030150;28;20490;-67
2021/06/16 14:02:10;;;;;;;3.60;3.30;;;;;;;;;;5030442;28;20449;-66
2021/06/16 14:04:37;;;;;;;3.83;3.40;;;;;;;;;;5030992;28;20931;-67
2021/06/16 14:07:05;;;;;;;3.37;3.17;;;;;;;;;;5030187;28;20476;-67
2021/06/16 14:09:32;;;;;;;4.57;4.17;;;;;;;;;;5031133;28;20460;-67
2021/06/16 14:11:59;;;;;;;3.87;3.47;;;;;;;;;;5030284;28;20488;-67
2021/06/16 14:14:26;;;;;;;3.23;3.03;;;;;;;;;;5030623;28;20539;-67
2021/06/16 14:16:53;;;;;;;4.20;3.80;;;;;;;;;;5029319;28;20857;-66
2021/06/16 14:19:22;;;;;;;4.20;3.50;;;;;;;;;;5031430;28;20452;-66
2021/06/16 14:21:50;;;;;;;3.80;3.40;;;;;;;;;;5030629;28;20484;-66
2021/06/16 14:24:17;;;;;;;4.00;3.70;;;;;;;;;;5030743;28;20457;-66
2021/06/16 14:26:44;;;;;;;4.10;3.70;;;;;;;;;;5029538;28;20519;-66
2021/06/16 14:29:12;;;;;;;4.43;4.03;;;;;;;;;;5031531;28;20817;-66
2021/06/16 14:31:39;;;;;;;4.40;4.00;;;;;;;;;;5034029;28;20487;-66
2021/06/16 14:34:06;;;;;;;4.80;3.80;;;;;;;;;;5034803;28;20449;-67
2021/06/16 14:36:35;;;;;;;4.17;3.77;;;;;;;;;;5033515;28;20472;-66
2021/06/16 14:39:02;;;;;;;3.97;3.57;;;;;;;;;;5034401;28;20459;-67
2021/06/16 14:41:29;;;;;;;5.63;3.90;;;;;;;;;;5033522;28;20445;-66
2021/06/16 14:43:56;;;;;;;4.13;3.83;;;;;;;;;;5030715;28;20464;-67
2021/06/16 14:46:23;;;;;;;3.80;3.50;;;;;;;;;;5023547;28;20481;-66
2021/06/16 14:48:50;;;;;;;4.50;4.10;;;;;;;;;;5028554;28;20813;-67
2021/06/16 14:51:17;;;;;;;4.10;3.70;;;;;;;;;;5033484;28;20481;-66
2021/06/16 14:53:46;;;;;;;4.63;4.13;;;;;;;;;;5034217;28;20471;-67